Observations

Aujourd'hui

  • Température

    Max: 25.9° à 18:11:48

    Moy: 18.0°

    Min: 7.5° à 06:45:27

 

  • Humidité

    Max: 86% à 07:34:56

    Min: 37% à 17:24:06

 

  • Précipitation accumulée

    Aujourd'hui: 0 mm

    Ce mois-ci: 115 mm

    Cette année: 115 mm



HeureTemperaturePoint de roséeHumiditéDir. VentVitesseRafalesPressionPrecip.Precip. Accum.
22:49 15.7°C 7.8°C 59% 0 km/h 0 km/h 1028 hPa 0 mm/hr 0 mm
22:44 15.8°C 7.6°C 58% 0 km/h 0 km/h 1028 hPa 0 mm/hr 0 mm
22:39 16°C 7.5°C 57% 0 km/h 0 km/h 1028 hPa 0 mm/hr 0 mm
22:34 16.2°C 7.8°C 57% 0 km/h 0 km/h 1028 hPa 0 mm/hr 0 mm
22:29 16.4°C 7.6°C 56% 0 km/h 0 km/h 1028 hPa 0 mm/hr 0 mm
22:24 16.6°C 7.9°C 56% 0 km/h 0 km/h 1028 hPa 0 mm/hr 0 mm
22:19 16.8°C 7.7°C 55% 0 km/h 0 km/h 1027 hPa 0 mm/hr 0 mm
22:14 17°C 7.9°C 55% 0 km/h 0 km/h 1027 hPa 0 mm/hr 0 mm
22:09 17.2°C 7.9°C 54% 0 km/h 0 km/h 1027 hPa 0 mm/hr 0 mm
22:04 17.5°C 8.1°C 54% 0 km/h 0 km/h 1027 hPa 0 mm/hr 0 mm
21:59 17.7°C 8.1°C 53% 0 km/h 0 km/h 1027 hPa 0 mm/hr 0 mm
21:54 17.9°C 7.9°C 52% 0 km/h 0 km/h 1027 hPa 0 mm/hr 0 mm
21:49 18.2°C 8.2°C 52% 0 km/h 0 km/h 1027 hPa 0 mm/hr 0 mm
21:44 18.4°C 8.4°C 52% 0 km/h 0 km/h 1027 hPa 0 mm/hr 0 mm
21:39 18.6°C 8.3°C 51% 0 km/h 0 km/h 1027 hPa 0 mm/hr 0 mm
21:34 18.9°C 8.3°C 50% 0 km/h 0 km/h 1027 hPa 0 mm/hr 0 mm
21:29 19.1°C 8.2°C 49% 0 km/h 0 km/h 1027 hPa 0 mm/hr 0 mm
21:24 19.3°C 8°C 48% 0 km/h 0 km/h 1027 hPa 0 mm/hr 0 mm
21:19 19.5°C 8.2°C 48% 0 km/h 0 km/h 1027 hPa 0 mm/hr 0 mm
21:14 19.7°C 8.4°C 48% 0 km/h 0 km/h 1027 hPa 0 mm/hr 0 mm
21:09 20°C 8°C 46% 0 km/h 0 km/h 1027 hPa 0 mm/hr 0 mm
21:04 20.2°C 8.2°C 46% 0 km/h 0 km/h 1027 hPa 0 mm/hr 0 mm
20:59 20.3°C 7.9°C 45% 0 km/h 4.3 km/h 1027 hPa 0 mm/hr 0 mm
20:54 20.5°C 7.8°C 44% 0 km/h 4.3 km/h 1027 hPa 0 mm/hr 0 mm
20:49 20.9°C 8.1°C 44% 4 km/h 4 km/h 1027 hPa 0 mm/hr 0 mm
20:44 21°C 7.9°C 43% 0 km/h 2.9 km/h 1027 hPa 0 mm/hr 0 mm
20:39 21.1°C 7.6°C 42% 0 km/h 2.9 km/h 1027 hPa 0 mm/hr 0 mm
20:34 21.4°C 7.9°C 42% 0 km/h 0 km/h 1027 hPa 0 mm/hr 0 mm
20:29 21.6°C 8.1°C 42% 0 km/h 2.9 km/h 1027 hPa 0 mm/hr 0 mm
20:24 21.7°C 7.8°C 41% 0 km/h 4.7 km/h 1027 hPa 0 mm/hr 0 mm
20:19 21.9°C 8°C 41% 0 km/h 6.1 km/h 1027 hPa 0 mm/hr 0 mm
20:14 22°C 7.7°C 40% 4.7 km/h 6.1 km/h 1027 hPa 0 mm/hr 0 mm
20:09 22.2°C 7.9°C 40% 5 km/h 6.1 km/h 1027 hPa 0 mm/hr 0 mm
20:04 22.4°C 8.1°C 40% 0 km/h 6.1 km/h 1027 hPa 0 mm/hr 0 mm
19:59 22.6°C 8.3°C 40% 5.5 km/h 5.5 km/h 1027 hPa 0 mm/hr 0 mm
19:54 22.8°C 8.4°C 40% 0 km/h 5.5 km/h 1027 hPa 0 mm/hr 0 mm
19:49 23.1°C 8.3°C 39% 0 km/h 6.1 km/h 1027 hPa 0 mm/hr 0 mm
19:44 23.2°C 8.4°C 39% 2.9 km/h 6.1 km/h 1027 hPa 0 mm/hr 0 mm
19:39 23.5°C 8.7°C 39% 2.9 km/h 7.2 km/h 1027 hPa 0 mm/hr 0 mm
19:34 23.8°C 8.9°C 39% 5.8 km/h 7.2 km/h 1027 hPa 0 mm/hr 0 mm
19:29 24.1°C 9.2°C 39% 4 km/h 6.1 km/h 1027 hPa 0 mm/hr 0 mm
19:24 24.2°C 8.9°C 38% 0 km/h 6.1 km/h 1027 hPa 0 mm/hr 0 mm
19:19 24.7°C 9.4°C 38% 4 km/h 5.8 km/h 1027 hPa 0 mm/hr 0 mm
19:14 25°C 9.6°C 38% 3.2 km/h 5 km/h 1027 hPa 0 mm/hr 0 mm
19:09 25.3°C 10.3°C 39% 0 km/h 5 km/h 1027 hPa 0 mm/hr 0 mm
19:04 25.3°C 9.9°C 38% 1.8 km/h 5.8 km/h 1027 hPa 0 mm/hr 0 mm
18:59 25.3°C 9.9°C 38% 0 km/h 5.8 km/h 1027 hPa 0 mm/hr 0 mm
18:54 25.5°C 10.1°C 38% 3.2 km/h 5 km/h 1027 hPa 0 mm/hr 0 mm
18:49 25.5°C 10.1°C 38% 3.2 km/h 6.4 km/h 1027 hPa 0 mm/hr 0 mm
18:44 25.5°C 10.1°C 38% 0 km/h 8.7 km/h 1027 hPa 0 mm/hr 0 mm
18:39 25.6°C 10.2°C 38% 3.2 km/h 8.7 km/h 1027 hPa 0 mm/hr 0 mm
18:34 25.5°C 10.1°C 38% 0 km/h 7.2 km/h 1027 hPa 0 mm/hr 0 mm
18:29 25.5°C 10.1°C 38% 5 km/h 6.4 km/h 1027 hPa 0 mm/hr 0 mm
18:24 25.7°C 10.3°C 38% 4.7 km/h 6.4 km/h 1027 hPa 0 mm/hr 0 mm
18:19 25.7°C 10.3°C 38% 6.4 km/h 7.2 km/h 1027 hPa 0 mm/hr 0 mm
18:14 25.7°C 10.3°C 38% 6.1 km/h 8.2 km/h 1027 hPa 0 mm/hr 0 mm
18:09 25.6°C 10.2°C 38% 0 km/h 8.2 km/h 1027 hPa 0 mm/hr 0 mm
18:04 25.6°C 10.6°C 39% 4.7 km/h 6.1 km/h 1027 hPa 0 mm/hr 0 mm
17:59 25.7°C 10.7°C 39% 5.8 km/h 7.9 km/h 1027 hPa 0 mm/hr 0 mm
17:54 25.3°C 9.9°C 38% 2.6 km/h 8.7 km/h 1027 hPa 0 mm/hr 0 mm
17:49 25.3°C 9.9°C 38% 6.1 km/h 8.7 km/h 1028 hPa 0 mm/hr 0 mm
17:44 25.4°C 10°C 38% 4.3 km/h 7.9 km/h 1028 hPa 0 mm/hr 0 mm
17:39 25.5°C 10.1°C 38% 2.1 km/h 7.2 km/h 1028 hPa 0 mm/hr 0 mm
17:34 25.4°C 10°C 38% 6.1 km/h 11.9 km/h 1028 hPa 0 mm/hr 0 mm
17:29 25.3°C 9.9°C 38% 5.8 km/h 11.9 km/h 1028 hPa 0 mm/hr 0 mm
17:24 25.1°C 9.3°C 37% 11.9 km/h 11.9 km/h 1028 hPa 0 mm/hr 0 mm
17:19 24.9°C 9.5°C 38% 3.2 km/h 10.5 km/h 1028 hPa 0 mm/hr 0 mm
17:14 25.2°C 9.8°C 38% 6.1 km/h 10.1 km/h 1028 hPa 0 mm/hr 0 mm
17:09 25.2°C 9.4°C 37% 6.1 km/h 10.1 km/h 1028 hPa 0 mm/hr 0 mm
17:04 25.6°C 10.2°C 38% 4 km/h 5.8 km/h 1028 hPa 0 mm/hr 0 mm
16:59 25.5°C 10.1°C 38% 4 km/h 10.5 km/h 1028 hPa 0 mm/hr 0 mm
16:54 25.1°C 9.7°C 38% 2.1 km/h 10.5 km/h 1028 hPa 0 mm/hr 0 mm
16:49 25.3°C 9.9°C 38% 5.8 km/h 8.2 km/h 1028 hPa 0 mm/hr 0 mm
16:44 25.3°C 9.9°C 38% 5.5 km/h 11.1 km/h 1028 hPa 0 mm/hr 0 mm
16:39 25.3°C 9.9°C 38% 5.8 km/h 11.1 km/h 1028 hPa 0 mm/hr 0 mm
16:34 25.5°C 10.1°C 38% 5.8 km/h 7.2 km/h 1028 hPa 0 mm/hr 0 mm
16:29 25.6°C 10.2°C 38% 4.7 km/h 7.2 km/h 1028 hPa 0 mm/hr 0 mm
16:24 25.5°C 10.1°C 38% 2.1 km/h 7.2 km/h 1028 hPa 0 mm/hr 0 mm
16:19 25.4°C 10°C 38% 4 km/h 6.4 km/h 1028 hPa 0 mm/hr 0 mm
16:14 25.4°C 10°C 38% 6.1 km/h 6.9 km/h 1028 hPa 0 mm/hr 0 mm
16:09 25.2°C 9.8°C 38% 4 km/h 7.2 km/h 1028 hPa 0 mm/hr 0 mm
16:04 25.2°C 9.8°C 38% 0 km/h 8.2 km/h 1028 hPa 0 mm/hr 0 mm
15:59 24.9°C 9.9°C 39% 6.4 km/h 8.2 km/h 1028 hPa 0 mm/hr 0 mm
15:54 25.1°C 10.1°C 39% 8.2 km/h 9 km/h 1028 hPa 0 mm/hr 0 mm
15:49 25.1°C 10.1°C 39% 5.5 km/h 9 km/h 1028 hPa 0 mm/hr 0 mm
15:44 25.3°C 10.3°C 39% 5.5 km/h 8.7 km/h 1028 hPa 0 mm/hr 0 mm
15:39 25.1°C 10.5°C 40% 6.1 km/h 7.9 km/h 1028 hPa 0 mm/hr 0 mm
15:34 25.1°C 10.5°C 40% 4.3 km/h 7.9 km/h 1028 hPa 0 mm/hr 0 mm
15:31 25.1°C 10.5°C 40% 7.9 km/h 7.9 km/h 1028 hPa 0 mm/hr 0 mm
15:29 25.1°C 10.5°C 40% 2.9 km/h 6.9 km/h 1028 hPa 0 mm/hr 0 mm
15:24 24.8°C 10.2°C 40% 2.1 km/h 6.9 km/h 1028 hPa 0 mm/hr 0 mm
15:19 24.8°C 10.2°C 40% 2.9 km/h 9 km/h 1029 hPa 0 mm/hr 0 mm
15:14 24.6°C 10.1°C 40% 4.7 km/h 9 km/h 1029 hPa 0 mm/hr 0 mm
15:09 24.6°C 10.1°C 40% 0 km/h 9.3 km/h 1029 hPa 0 mm/hr 0 mm
15:04 24.7°C 10.5°C 41% 6.4 km/h 9.3 km/h 1029 hPa 0 mm/hr 0 mm
14:59 24.5°C 10.3°C 41% 4 km/h 8.7 km/h 1029 hPa 0 mm/hr 0 mm
14:54 24.1°C 9.6°C 40% 5.5 km/h 8.7 km/h 1029 hPa 0 mm/hr 0 mm
14:49 24.5°C 10.3°C 41% 6.4 km/h 8.7 km/h 1029 hPa 0 mm/hr 0 mm
14:44 24.6°C 10.4°C 41% 4.3 km/h 10.8 km/h 1029 hPa 0 mm/hr 0 mm
14:39 24.6°C 10.4°C 41% 5.5 km/h 10.8 km/h 1029 hPa 0 mm/hr 0 mm
14:34 24.6°C 10.4°C 41% 10.8 km/h 10.8 km/h 1029 hPa 0 mm/hr 0 mm
14:29 24.9°C 10.7°C 41% 6.4 km/h 8.7 km/h 1029 hPa 0 mm/hr 0 mm
14:24 24.8°C 10.6°C 41% 5 km/h 8.7 km/h 1029 hPa 0 mm/hr 0 mm
14:19 24.6°C 10.4°C 41% 8.7 km/h 8.7 km/h 1029 hPa 0 mm/hr 0 mm
14:14 24.6°C 10.4°C 41% 4.3 km/h 6.9 km/h 1029 hPa 0 mm/hr 0 mm
14:09 24.4°C 10.2°C 41% 4.7 km/h 9.7 km/h 1029 hPa 0 mm/hr 0 mm
14:04 24.3°C 10.1°C 41% 6.9 km/h 9.7 km/h 1029 hPa 0 mm/hr 0 mm
13:59 24.2°C 10.1°C 41% 9.7 km/h 9.7 km/h 1029 hPa 0 mm/hr 0 mm
13:54 24.2°C 10.1°C 41% 4 km/h 9 km/h 1029 hPa 0 mm/hr 0 mm
11:24 23.5°C 11.2°C 46% 5.5 km/h 11.9 km/h 1030 hPa 0 mm/hr 0 mm
11:19 23.2°C 11°C 46% 4.7 km/h 11.9 km/h 1030 hPa 0 mm/hr 0 mm
11:14 23°C 10.8°C 46% 11.9 km/h 11.9 km/h 1030 hPa 0 mm/hr 0 mm
11:09 23°C 10.8°C 46% 6.1 km/h 9 km/h 1030 hPa 0 mm/hr 0 mm
11:04 23.1°C 11.2°C 47% 6.4 km/h 9 km/h 1030 hPa 0 mm/hr 0 mm
10:59 23.2°C 11.6°C 48% 4.7 km/h 7.9 km/h 1030 hPa 0 mm/hr 0 mm
10:54 23.4°C 11.8°C 48% 7.9 km/h 9 km/h 1030 hPa 0 mm/hr 0 mm
10:49 23.3°C 12°C 49% 7.2 km/h 9 km/h 1030 hPa 0 mm/hr 0 mm
10:44 23.3°C 12°C 49% 6.9 km/h 6.9 km/h 1030 hPa 0 mm/hr 0 mm
10:39 23°C 12.1°C 50% 5 km/h 7.2 km/h 1030 hPa 0 mm/hr 0 mm
10:34 23.1°C 12.2°C 50% 5.5 km/h 7.2 km/h 1030 hPa 0 mm/hr 0 mm
10:24 23.1°C 12.8°C 52% 3.2 km/h 6.1 km/h 1030 hPa 0 mm/hr 0 mm
10:19 22.8°C 12.8°C 53% 2.1 km/h 6.9 km/h 1030 hPa 0 mm/hr 0 mm
10:14 22.7°C 12.7°C 53% 5.5 km/h 6.9 km/h 1030 hPa 0 mm/hr 0 mm
10:09 22.8°C 13.1°C 54% 1.8 km/h 5.5 km/h 1030 hPa 0 mm/hr 0 mm
10:04 22.4°C 13.3°C 56% 0 km/h 6.1 km/h 1029 hPa 0 mm/hr 0 mm
09:59 22.2°C 13.1°C 56% 3.2 km/h 7.9 km/h 1029 hPa 0 mm/hr 0 mm
09:54 22.1°C 13.6°C 58% 6.1 km/h 7.9 km/h 1029 hPa 0 mm/hr 0 mm
09:49 21.8°C 13.5°C 59% 0 km/h 6.9 km/h 1029 hPa 0 mm/hr 0 mm
09:44 21.8°C 13.5°C 59% 6.9 km/h 6.9 km/h 1029 hPa 0 mm/hr 0 mm
09:39 21.3°C 13.3°C 60% 6.9 km/h 6.9 km/h 1029 hPa 0 mm/hr 0 mm
09:34 21.2°C 13.8°C 62% 0 km/h 5.8 km/h 1029 hPa 0 mm/hr 0 mm
09:29 20.8°C 13.6°C 63% 5.8 km/h 5.8 km/h 1029 hPa 0 mm/hr 0 mm
09:24 20.4°C 13.2°C 63% 0 km/h 5.8 km/h 1029 hPa 0 mm/hr 0 mm
09:19 20.3°C 13.6°C 65% 4.7 km/h 5.5 km/h 1029 hPa 0 mm/hr 0 mm
09:14 19.9°C 13.4°C 66% 4.3 km/h 4.3 km/h 1029 hPa 0 mm/hr 0 mm
09:09 19.9°C 13.4°C 66% 0 km/h 3.2 km/h 1029 hPa 0 mm/hr 0 mm
09:04 19.5°C 13.3°C 67% 3.2 km/h 4 km/h 1029 hPa 0 mm/hr 0 mm
08:59 19°C 13.1°C 68% 0 km/h 4.7 km/h 1029 hPa 0 mm/hr 0 mm
08:54 18.9°C 12.9°C 68% 0 km/h 4.7 km/h 1029 hPa 0 mm/hr 0 mm
08:49 18.4°C 12.9°C 70% 3.2 km/h 3.2 km/h 1029 hPa 0 mm/hr 0 mm
08:44 18.1°C 12.9°C 71% 1.8 km/h 1.8 km/h 1029 hPa 0 mm/hr 0 mm
08:39 17.6°C 12.6°C 72% 0 km/h 3.2 km/h 1029 hPa 0 mm/hr 0 mm
08:34 17.2°C 12.4°C 73% 0 km/h 3.2 km/h 1029 hPa 0 mm/hr 0 mm
08:29 16.7°C 12.1°C 74% 0 km/h 3.2 km/h 1029 hPa 0 mm/hr 0 mm
08:24 16.1°C 11.9°C 76% 0 km/h 3.2 km/h 1029 hPa 0 mm/hr 0 mm
08:19 15.7°C 11.7°C 77% 0 km/h 1.8 km/h 1029 hPa 0 mm/hr 0 mm
08:14 15.4°C 11.6°C 78% 1.8 km/h 1.8 km/h 1029 hPa 0 mm/hr 0 mm
08:09 14.9°C 11.3°C 79% 0 km/h 0 km/h 1029 hPa 0 mm/hr 0 mm
07:59 13.9°C 10.7°C 81% 0 km/h 0 km/h 1029 hPa 0 mm/hr 0 mm
07:54 13.3°C 10.3°C 82% 0 km/h 0 km/h 1029 hPa 0 mm/hr 0 mm
07:49 12.7°C 9.9°C 83% 0 km/h 0 km/h 1029 hPa 0 mm/hr 0 mm
07:44 12.3°C 9.7°C 84% 0 km/h 0 km/h 1029 hPa 0 mm/hr 0 mm
07:39 11.6°C 9.2°C 85% 0 km/h 0 km/h 1029 hPa 0 mm/hr 0 mm
07:34 10.9°C 8.6°C 86% 0 km/h 0 km/h 1029 hPa 0 mm/hr 0 mm
07:29 10.1°C 7.9°C 86% 0 km/h 0 km/h 1029 hPa 0 mm/hr 0 mm
07:24 9.6°C 7.4°C 86% 0 km/h 0 km/h 1029 hPa 0 mm/hr 0 mm
07:19 9°C 6.6°C 85% 0 km/h 0 km/h 1029 hPa 0 mm/hr 0 mm
07:14 8.6°C 6.2°C 85% 0 km/h 0 km/h 1029 hPa 0 mm/hr 0 mm
07:09 8.2°C 5.8°C 85% 0 km/h 0 km/h 1029 hPa 0 mm/hr 0 mm
07:04 7.9°C 5.5°C 85% 0 km/h 0 km/h 1029 hPa 0 mm/hr 0 mm
06:59 7.9°C 5.5°C 85% 0 km/h 0 km/h 1029 hPa 0 mm/hr 0 mm
06:54 7.8°C 5.2°C 84% 0 km/h 0 km/h 1029 hPa 0 mm/hr 0 mm
06:49 7.6°C 5.1°C 84% 0 km/h 0 km/h 1029 hPa 0 mm/hr 0 mm
06:44 7.5°C 4.8°C 83% 0 km/h 0 km/h 1029 hPa 0 mm/hr 0 mm
06:39 7.5°C 4.8°C 83% 0 km/h 0 km/h 1029 hPa 0 mm/hr 0 mm
06:34 7.5°C 4.8°C 83% 0 km/h 0 km/h 1029 hPa 0 mm/hr 0 mm
06:29 7.5°C 4.8°C 83% 0 km/h 0 km/h 1029 hPa 0 mm/hr 0 mm
06:24 7.5°C 4.8°C 83% 0 km/h 0 km/h 1029 hPa 0 mm/hr 0 mm
06:19 7.5°C 4.8°C 83% 0 km/h 0 km/h 1029 hPa 0 mm/hr 0 mm
06:14 7.6°C 4.9°C 83% 0 km/h 0 km/h 1029 hPa 0 mm/hr 0 mm
06:09 7.6°C 4.9°C 83% 0 km/h 0 km/h 1029 hPa 0 mm/hr 0 mm
06:04 7.7°C 5°C 83% 0 km/h 0 km/h 1029 hPa 0 mm/hr 0 mm
05:59 7.7°C 5°C 83% 0 km/h 0 km/h 1029 hPa 0 mm/hr 0 mm
05:54 7.7°C 4.8°C 82% 0 km/h 0 km/h 1029 hPa 0 mm/hr 0 mm
05:49 7.8°C 4.9°C 82% 0 km/h 0 km/h 1028 hPa 0 mm/hr 0 mm
05:44 7.8°C 4.9°C 82% 0 km/h 0 km/h 1028 hPa 0 mm/hr 0 mm
05:39 7.8°C 4.9°C 82% 0 km/h 0 km/h 1028 hPa 0 mm/hr 0 mm
05:34 7.9°C 5°C 82% 0 km/h 0 km/h 1028 hPa 0 mm/hr 0 mm
05:29 7.9°C 4.8°C 81% 0 km/h 0 km/h 1028 hPa 0 mm/hr 0 mm
05:24 8°C 4.9°C 81% 0 km/h 0 km/h 1028 hPa 0 mm/hr 0 mm
05:19 8.1°C 4.9°C 80% 0 km/h 0 km/h 1028 hPa 0 mm/hr 0 mm
05:14 8.1°C 4.9°C 80% 0 km/h 0 km/h 1028 hPa 0 mm/hr 0 mm
05:09 8.1°C 4.9°C 80% 0 km/h 0 km/h 1028 hPa 0 mm/hr 0 mm
05:04 8.1°C 4.9°C 80% 0 km/h 0 km/h 1028 hPa 0 mm/hr 0 mm
04:59 8.1°C 4.9°C 80% 0 km/h 0 km/h 1028 hPa 0 mm/hr 0 mm
04:54 8.2°C 4.8°C 79% 0 km/h 0 km/h 1028 hPa 0 mm/hr 0 mm
04:49 8.3°C 4.9°C 79% 0 km/h 0 km/h 1028 hPa 0 mm/hr 0 mm
04:44 8.3°C 4.9°C 79% 0 km/h 0 km/h 1028 hPa 0 mm/hr 0 mm
04:39 8.3°C 4.9°C 79% 0 km/h 0 km/h 1028 hPa 0 mm/hr 0 mm
04:34 8.4°C 5°C 79% 0 km/h 0 km/h 1028 hPa 0 mm/hr 0 mm
04:29 8.5°C 5.1°C 79% 0 km/h 0 km/h 1028 hPa 0 mm/hr 0 mm
04:24 8.5°C 5.1°C 79% 0 km/h 0 km/h 1028 hPa 0 mm/hr 0 mm
04:19 8.6°C 5.2°C 79% 0 km/h 0 km/h 1028 hPa 0 mm/hr 0 mm
04:14 8.6°C 5.2°C 79% 0 km/h 0 km/h 1028 hPa 0 mm/hr 0 mm
04:09 8.7°C 5.3°C 79% 0 km/h 0 km/h 1028 hPa 0 mm/hr 0 mm
04:04 8.8°C 5.4°C 79% 0 km/h 0 km/h 1028 hPa 0 mm/hr 0 mm
03:59 8.9°C 5.5°C 79% 0 km/h 0 km/h 1028 hPa 0 mm/hr 0 mm
03:54 9°C 5.4°C 78% 0 km/h 0 km/h 1029 hPa 0 mm/hr 0 mm
03:49 9°C 5.4°C 78% 0 km/h 0 km/h 1029 hPa 0 mm/hr 0 mm
03:44 9°C 5.2°C 77% 0 km/h 0 km/h 1029 hPa 0 mm/hr 0 mm
03:39 9.1°C 5.3°C 77% 0 km/h 0 km/h 1029 hPa 0 mm/hr 0 mm
03:34 9.1°C 5.3°C 77% 0 km/h 0 km/h 1028 hPa 0 mm/hr 0 mm
03:29 9.2°C 5.4°C 77% 0 km/h 0 km/h 1028 hPa 0 mm/hr 0 mm
03:24 9.2°C 5.4°C 77% 0 km/h 0 km/h 1028 hPa 0 mm/hr 0 mm
03:19 9.3°C 5.3°C 76% 0 km/h 0 km/h 1029 hPa 0 mm/hr 0 mm
03:14 9.3°C 5.3°C 76% 0 km/h 0 km/h 1029 hPa 0 mm/hr 0 mm
03:09 9.4°C 5.4°C 76% 0 km/h 0 km/h 1029 hPa 0 mm/hr 0 mm
03:04 9.5°C 5.5°C 76% 0 km/h 0 km/h 1029 hPa 0 mm/hr 0 mm
02:59 9.5°C 5.5°C 76% 0 km/h 0 km/h 1029 hPa 0 mm/hr 0 mm
02:54 9.6°C 5.6°C 76% 0 km/h 0 km/h 1029 hPa 0 mm/hr 0 mm
02:49 9.6°C 5.6°C 76% 0 km/h 0 km/h 1029 hPa 0 mm/hr 0 mm
02:44 9.7°C 5.7°C 76% 0 km/h 0 km/h 1029 hPa 0 mm/hr 0 mm
02:39 9.7°C 5.7°C 76% 0 km/h 0 km/h 1029 hPa 0 mm/hr 0 mm
02:34 9.8°C 5.6°C 75% 0 km/h 0 km/h 1029 hPa 0 mm/hr 0 mm
02:29 9.8°C 5.6°C 75% 0 km/h 0 km/h 1029 hPa 0 mm/hr 0 mm
02:24 9.9°C 5.7°C 75% 0 km/h 0 km/h 1029 hPa 0 mm/hr 0 mm
02:19 9.9°C 5.7°C 75% 0 km/h 0 km/h 1029 hPa 0 mm/hr 0 mm
02:14 10°C 5.6°C 74% 0 km/h 0 km/h 1029 hPa 0 mm/hr 0 mm
02:09 10°C 5.6°C 74% 0 km/h 0 km/h 1029 hPa 0 mm/hr 0 mm
02:04 10.1°C 5.5°C 73% 0 km/h 0 km/h 1029 hPa 0 mm/hr 0 mm
01:59 10.1°C 5.5°C 73% 0 km/h 0 km/h 1029 hPa 0 mm/hr 0 mm
01:54 10.2°C 5.6°C 73% 0 km/h 0 km/h 1029 hPa 0 mm/hr 0 mm
01:49 10.2°C 5.6°C 73% 0 km/h 0 km/h 1029 hPa 0 mm/hr 0 mm
01:44 10.3°C 5.5°C 72% 0 km/h 0 km/h 1029 hPa 0 mm/hr 0 mm
01:39 10.4°C 5.6°C 72% 0 km/h 0 km/h 1029 hPa 0 mm/hr 0 mm
01:34 10.5°C 5.7°C 72% 0 km/h 0 km/h 1029 hPa 0 mm/hr 0 mm
01:29 10.5°C 5.7°C 72% 0 km/h 0 km/h 1029 hPa 0 mm/hr 0 mm
01:24 10.6°C 5.8°C 72% 0 km/h 0 km/h 1029 hPa 0 mm/hr 0 mm
01:19 10.7°C 5.7°C 71% 0 km/h 0 km/h 1029 hPa 0 mm/hr 0 mm
01:14 10.8°C 5.8°C 71% 0 km/h 0 km/h 1029 hPa 0 mm/hr 0 mm
01:09 10.9°C 5.7°C 70% 0 km/h 0 km/h 1029 hPa 0 mm/hr 0 mm
01:04 10.9°C 5.7°C 70% 0 km/h 0 km/h 1029 hPa 0 mm/hr 0 mm
00:59 11°C 5.6°C 69% 0 km/h 0 km/h 1029 hPa 0 mm/hr 0 mm
00:54 11.1°C 5.7°C 69% 0 km/h 0 km/h 1029 hPa 0 mm/hr 0 mm
00:49 11.2°C 5.6°C 68% 0 km/h 0 km/h 1029 hPa 0 mm/hr 0 mm
00:44 11.3°C 5.6°C 68% 0 km/h 0 km/h 1029 hPa 0 mm/hr 0 mm
00:39 11.4°C 5.8°C 68% 0 km/h 0 km/h 1029 hPa 0 mm/hr 0 mm
00:34 11.5°C 5.6°C 67% 0 km/h 0 km/h 1029 hPa 0 mm/hr 0 mm
00:29 11.6°C 5.8°C 67% 0 km/h 0 km/h 1029 hPa 0 mm/hr 0 mm
00:24 11.7°C 5.6°C 66% 0 km/h 0 km/h 1029 hPa 0 mm/hr 0 mm
00:19 11.8°C 5.5°C 65% 0 km/h 0 km/h 1029 hPa 0 mm/hr 0 mm
00:14 11.9°C 5.6°C 65% 0 km/h 0 km/h 1029 hPa 0 mm/hr 0 mm
00:09 12°C 5.5°C 64% 0 km/h 0 km/h 1029 hPa 0 mm/hr 0 mm
00:04 12.2°C 5.4°C 63% 0 km/h 0 km/h 1029 hPa 0 mm/hr 0 mm